sensor_id;sensor_type;location;lat;lon;timestamp;P1;durP1;ratioP1;P2;durP2;ratioP2
56201;SDS011;42117;50.360;3.508;2022-07-06T00:01:27;9.68;;;7.00;;
56201;SDS011;42117;50.360;3.508;2022-07-06T00:03:53;7.15;;;6.30;;
56201;SDS011;42117;50.360;3.508;2022-07-06T00:06:19;7.68;;;6.97;;
56201;SDS011;42117;50.360;3.508;2022-07-06T00:08:45;8.82;;;7.55;;
56201;SDS011;42117;50.360;3.508;2022-07-06T00:11:11;7.60;;;7.20;;
56201;SDS011;42117;50.360;3.508;2022-07-06T00:13:37;8.73;;;8.05;;
56201;SDS011;42117;50.360;3.508;2022-07-06T00:16:03;8.70;;;7.50;;
56201;SDS011;42117;50.360;3.508;2022-07-06T00:18:29;9.57;;;8.30;;
56201;SDS011;42117;50.360;3.508;2022-07-06T00:20:56;7.50;;;6.53;;
56201;SDS011;42117;50.360;3.508;2022-07-06T00:23:22;10.25;;;6.80;;
56201;SDS011;42117;50.360;3.508;2022-07-06T00:25:48;6.40;;;6.07;;
56201;SDS011;42117;50.360;3.508;2022-07-06T00:28:14;6.57;;;6.20;;
56201;SDS011;42117;50.360;3.508;2022-07-06T00:30:40;6.80;;;6.40;;
56201;SDS011;42117;50.360;3.508;2022-07-06T00:33:06;7.55;;;7.05;;
56201;SDS011;42117;50.360;3.508;2022-07-06T00:35:32;6.93;;;6.50;;
56201;SDS011;42117;50.360;3.508;2022-07-06T00:37:58;8.60;;;7.30;;
56201;SDS011;42117;50.360;3.508;2022-07-06T00:40:24;7.15;;;6.75;;
56201;SDS011;42117;50.360;3.508;2022-07-06T00:42:50;7.50;;;7.10;;
56201;SDS011;42117;50.360;3.508;2022-07-06T00:45:17;7.07;;;6.72;;
56201;SDS011;42117;50.360;3.508;2022-07-06T00:47:44;7.20;;;6.80;;
56201;SDS011;42117;50.360;3.508;2022-07-06T00:50:11;9.00;;;8.30;;
56201;SDS011;42117;50.360;3.508;2022-07-06T00:52:41;8.52;;;7.65;;
56201;SDS011;42117;50.360;3.508;2022-07-06T00:55:07;8.10;;;7.70;;
56201;SDS011;42117;50.360;3.508;2022-07-06T00:57:33;6.80;;;6.25;;
56201;SDS011;42117;50.360;3.508;2022-07-06T00:59:59;6.85;;;6.32;;
56201;SDS011;42117;50.360;3.508;2022-07-06T01:02:26;7.65;;;6.15;;
56201;SDS011;42117;50.360;3.508;2022-07-06T01:04:52;6.93;;;6.35;;
56201;SDS011;42117;50.360;3.508;2022-07-06T01:07:18;7.90;;;7.30;;
56201;SDS011;42117;50.360;3.508;2022-07-06T01:09:44;7.85;;;6.90;;
56201;SDS011;42117;50.360;3.508;2022-07-06T01:12:10;8.45;;;7.60;;
56201;SDS011;42117;50.360;3.508;2022-07-06T01:14:36;8.30;;;7.50;;
56201;SDS011;42117;50.360;3.508;2022-07-06T01:17:02;7.20;;;6.75;;
56201;SDS011;42117;50.360;3.508;2022-07-06T01:19:29;6.20;;;5.80;;
56201;SDS011;42117;50.360;3.508;2022-07-06T01:21:55;5.85;;;5.55;;
56201;SDS011;42117;50.360;3.508;2022-07-06T01:24:21;7.25;;;5.63;;
56201;SDS011;42117;50.360;3.508;2022-07-06T01:26:47;10.98;;;6.10;;
56201;SDS011;42117;50.360;3.508;2022-07-06T01:29:13;8.00;;;7.40;;
56201;SDS011;42117;50.360;3.508;2022-07-06T01:31:45;6.57;;;6.05;;
56201;SDS011;42117;50.360;3.508;2022-07-06T01:34:12;7.32;;;6.63;;
56201;SDS011;42117;50.360;3.508;2022-07-06T01:36:39;6.78;;;6.38;;
56201;SDS011;42117;50.360;3.508;2022-07-06T01:39:05;7.55;;;7.13;;
56201;SDS011;42117;50.360;3.508;2022-07-06T01:41:33;6.70;;;6.00;;
56201;SDS011;42117;50.360;3.508;2022-07-06T01:43:59;7.57;;;6.97;;
56201;SDS011;42117;50.360;3.508;2022-07-06T01:46:25;8.43;;;7.90;;
56201;SDS011;42117;50.360;3.508;2022-07-06T01:48:51;8.73;;;7.95;;
56201;SDS011;42117;50.360;3.508;2022-07-06T01:51:17;8.93;;;8.13;;
56201;SDS011;42117;50.360;3.508;2022-07-06T01:53:44;8.45;;;7.80;;
56201;SDS011;42117;50.360;3.508;2022-07-06T01:56:10;8.25;;;7.57;;
56201;SDS011;42117;50.360;3.508;2022-07-06T01:58:38;8.98;;;8.48;;
56201;SDS011;42117;50.360;3.508;2022-07-06T02:01:11;8.98;;;8.38;;
56201;SDS011;42117;50.360;3.508;2022-07-06T02:03:37;9.20;;;8.48;;
56201;SDS011;42117;50.360;3.508;2022-07-06T02:06:04;10.38;;;8.32;;
56201;SDS011;42117;50.360;3.508;2022-07-06T02:08:30;8.80;;;8.00;;
56201;SDS011;42117;50.360;3.508;2022-07-06T02:10:57;8.07;;;7.57;;
56201;SDS011;42117;50.360;3.508;2022-07-06T02:13:23;8.43;;;7.82;;
56201;SDS011;42117;50.360;3.508;2022-07-06T02:15:49;8.65;;;7.93;;
56201;SDS011;42117;50.360;3.508;2022-07-06T02:18:15;9.77;;;8.25;;
56201;SDS011;42117;50.360;3.508;2022-07-06T02:20:41;9.00;;;8.32;;
56201;SDS011;42117;50.360;3.508;2022-07-06T02:23:07;8.57;;;7.97;;
56201;SDS011;42117;50.360;3.508;2022-07-06T02:25:33;14.18;;;8.25;;
56201;SDS011;42117;50.360;3.508;2022-07-06T02:27:59;9.75;;;9.07;;
56201;SDS011;42117;50.360;3.508;2022-07-06T02:30:25;9.77;;;9.07;;
56201;SDS011;42117;50.360;3.508;2022-07-06T02:32:51;9.55;;;8.90;;
56201;SDS011;42117;50.360;3.508;2022-07-06T02:35:17;10.10;;;8.98;;
56201;SDS011;42117;50.360;3.508;2022-07-06T02:37:43;8.55;;;8.05;;
56201;SDS011;42117;50.360;3.508;2022-07-06T02:40:09;9.05;;;8.25;;
56201;SDS011;42117;50.360;3.508;2022-07-06T02:42:35;8.82;;;8.32;;
56201;SDS011;42117;50.360;3.508;2022-07-06T02:45:01;8.85;;;8.10;;
56201;SDS011;42117;50.360;3.508;2022-07-06T02:47:27;10.70;;;9.20;;
56201;SDS011;42117;50.360;3.508;2022-07-06T02:49:53;9.75;;;9.15;;
56201;SDS011;42117;50.360;3.508;2022-07-06T02:52:19;9.10;;;8.50;;
56201;SDS011;42117;50.360;3.508;2022-07-06T02:54:45;9.55;;;8.75;;
56201;SDS011;42117;50.360;3.508;2022-07-06T02:57:13;9.50;;;8.90;;
56201;SDS011;42117;50.360;3.508;2022-07-06T02:59:39;8.48;;;7.68;;
56201;SDS011;42117;50.360;3.508;2022-07-06T03:02:05;8.88;;;8.05;;
56201;SDS011;42117;50.360;3.508;2022-07-06T03:04:32;9.02;;;8.13;;
56201;SDS011;42117;50.360;3.508;2022-07-06T03:06:58;9.50;;;8.57;;
56201;SDS011;42117;50.360;3.508;2022-07-06T03:09:24;8.52;;;7.88;;
56201;SDS011;42117;50.360;3.508;2022-07-06T03:11:50;8.90;;;8.20;;
56201;SDS011;42117;50.360;3.508;2022-07-06T03:14:16;7.97;;;7.47;;
56201;SDS011;42117;50.360;3.508;2022-07-06T03:16:42;10.07;;;8.05;;
56201;SDS011;42117;50.360;3.508;2022-07-06T03:19:08;9.52;;;8.25;;
56201;SDS011;42117;50.360;3.508;2022-07-06T03:21:34;9.45;;;8.75;;
56201;SDS011;42117;50.360;3.508;2022-07-06T03:24:00;8.70;;;8.18;;
56201;SDS011;42117;50.360;3.508;2022-07-06T03:26:26;8.10;;;7.32;;
56201;SDS011;42117;50.360;3.508;2022-07-06T03:28:52;10.02;;;9.32;;
56201;SDS011;42117;50.360;3.508;2022-07-06T03:31:18;10.23;;;9.40;;
56201;SDS011;42117;50.360;3.508;2022-07-06T03:33:44;9.27;;;8.45;;
56201;SDS011;42117;50.360;3.508;2022-07-06T03:36:10;10.23;;;7.88;;
56201;SDS011;42117;50.360;3.508;2022-07-06T03:38:36;8.27;;;7.68;;
56201;SDS011;42117;50.360;3.508;2022-07-06T03:41:02;8.35;;;7.80;;
56201;SDS011;42117;50.360;3.508;2022-07-06T03:43:28;9.02;;;8.43;;
56201;SDS011;42117;50.360;3.508;2022-07-06T03:45:55;8.38;;;7.88;;
56201;SDS011;42117;50.360;3.508;2022-07-06T03:48:21;8.35;;;7.82;;
56201;SDS011;42117;50.360;3.508;2022-07-06T03:50:47;8.85;;;8.23;;
56201;SDS011;42117;50.360;3.508;2022-07-06T03:53:13;10.93;;;9.80;;
56201;SDS011;42117;50.360;3.508;2022-07-06T03:55:39;10.93;;;10.15;;
56201;SDS011;42117;50.360;3.508;2022-07-06T03:58:05;12.20;;;10.93;;
56201;SDS011;42117;50.360;3.508;2022-07-06T04:00:31;12.30;;;11.30;;
56201;SDS011;42117;50.360;3.508;2022-07-06T04:02:58;11.98;;;11.07;;
56201;SDS011;42117;50.360;3.508;2022-07-06T04:05:24;11.93;;;10.77;;
56201;SDS011;42117;50.360;3.508;2022-07-06T04:07:50;16.08;;;10.90;;
56201;SDS011;42117;50.360;3.508;2022-07-06T04:10:16;11.68;;;10.48;;
56201;SDS011;42117;50.360;3.508;2022-07-06T04:12:43;11.95;;;10.82;;
56201;SDS011;42117;50.360;3.508;2022-07-06T04:15:09;10.02;;;9.20;;
56201;SDS011;42117;50.360;3.508;2022-07-06T04:17:36;11.35;;;10.35;;
56201;SDS011;42117;50.360;3.508;2022-07-06T04:20:17;9.20;;;8.50;;
56201;SDS011;42117;50.360;3.508;2022-07-06T04:22:43;8.25;;;7.45;;
56201;SDS011;42117;50.360;3.508;2022-07-06T04:25:09;8.50;;;7.72;;
56201;SDS011;42117;50.360;3.508;2022-07-06T04:27:35;8.80;;;8.20;;
56201;SDS011;42117;50.360;3.508;2022-07-06T04:30:02;9.93;;;7.78;;
56201;SDS011;42117;50.360;3.508;2022-07-06T04:32:28;10.63;;;9.82;;
56201;SDS011;42117;50.360;3.508;2022-07-06T04:34:54;9.85;;;8.30;;
56201;SDS011;42117;50.360;3.508;2022-07-06T04:37:20;9.10;;;8.40;;
56201;SDS011;42117;50.360;3.508;2022-07-06T04:39:46;10.40;;;9.70;;
56201;SDS011;42117;50.360;3.508;2022-07-06T04:42:12;9.52;;;8.75;;
56201;SDS011;42117;50.360;3.508;2022-07-06T04:44:38;9.90;;;8.95;;
56201;SDS011;42117;50.360;3.508;2022-07-06T04:47:04;12.32;;;9.63;;
56201;SDS011;42117;50.360;3.508;2022-07-06T04:49:30;13.35;;;10.75;;
56201;SDS011;42117;50.360;3.508;2022-07-06T04:51:56;10.57;;;9.48;;
56201;SDS011;42117;50.360;3.508;2022-07-06T04:54:22;10.05;;;9.05;;
56201;SDS011;42117;50.360;3.508;2022-07-06T04:56:48;12.07;;;9.45;;
56201;SDS011;42117;50.360;3.508;2022-07-06T04:59:15;8.50;;;7.70;;
56201;SDS011;42117;50.360;3.508;2022-07-06T05:01:41;13.63;;;9.18;;
56201;SDS011;42117;50.360;3.508;2022-07-06T05:04:07;9.20;;;8.45;;
56201;SDS011;42117;50.360;3.508;2022-07-06T05:06:33;9.90;;;8.00;;
56201;SDS011;42117;50.360;3.508;2022-07-06T05:08:59;9.90;;;9.00;;
56201;SDS011;42117;50.360;3.508;2022-07-06T05:11:26;9.88;;;8.77;;
56201;SDS011;42117;50.360;3.508;2022-07-06T05:13:52;12.00;;;8.90;;
56201;SDS011;42117;50.360;3.508;2022-07-06T05:16:18;9.45;;;8.50;;
56201;SDS011;42117;50.360;3.508;2022-07-06T05:18:44;12.52;;;8.93;;
56201;SDS011;42117;50.360;3.508;2022-07-06T05:21:10;8.65;;;7.97;;
56201;SDS011;42117;50.360;3.508;2022-07-06T05:23:36;9.57;;;8.68;;
56201;SDS011;42117;50.360;3.508;2022-07-06T05:26:02;12.57;;;7.60;;
56201;SDS011;42117;50.360;3.508;2022-07-06T05:28:28;16.05;;;8.50;;
56201;SDS011;42117;50.360;3.508;2022-07-06T05:30:54;12.35;;;9.00;;
56201;SDS011;42117;50.360;3.508;2022-07-06T05:33:20;10.52;;;9.20;;
56201;SDS011;42117;50.360;3.508;2022-07-06T05:35:46;8.98;;;8.27;;
56201;SDS011;42117;50.360;3.508;2022-07-06T05:38:12;8.95;;;7.93;;
56201;SDS011;42117;50.360;3.508;2022-07-06T05:40:38;9.38;;;7.70;;
56201;SDS011;42117;50.360;3.508;2022-07-06T05:43:04;14.45;;;7.72;;
56201;SDS011;42117;50.360;3.508;2022-07-06T05:45:30;8.48;;;7.68;;
56201;SDS011;42117;50.360;3.508;2022-07-06T05:47:56;10.05;;;8.90;;
56201;SDS011;42117;50.360;3.508;2022-07-06T05:50:41;9.57;;;8.48;;
56201;SDS011;42117;50.360;3.508;2022-07-06T05:53:07;13.80;;;9.02;;
56201;SDS011;42117;50.360;3.508;2022-07-06T05:55:33;9.88;;;8.88;;
56201;SDS011;42117;50.360;3.508;2022-07-06T05:57:59;14.52;;;8.73;;
56201;SDS011;42117;50.360;3.508;2022-07-06T06:00:26;9.23;;;8.38;;
56201;SDS011;42117;50.360;3.508;2022-07-06T06:02:52;10.90;;;8.32;;
56201;SDS011;42117;50.360;3.508;2022-07-06T06:05:18;9.15;;;8.20;;
56201;SDS011;42117;50.360;3.508;2022-07-06T06:07:45;19.30;;;8.73;;
56201;SDS011;42117;50.360;3.508;2022-07-06T06:10:16;7.78;;;7.20;;
56201;SDS011;42117;50.360;3.508;2022-07-06T06:12:43;10.05;;;6.38;;
56201;SDS011;42117;50.360;3.508;2022-07-06T06:15:09;5.95;;;5.10;;
56201;SDS011;42117;50.360;3.508;2022-07-06T06:17:35;11.43;;;6.43;;
56201;SDS011;42117;50.360;3.508;2022-07-06T06:20:02;10.10;;;6.65;;
56201;SDS011;42117;50.360;3.508;2022-07-06T06:22:29;10.23;;;7.50;;
56201;SDS011;42117;50.360;3.508;2022-07-06T06:24:55;8.55;;;5.93;;
56201;SDS011;42117;50.360;3.508;2022-07-06T06:27:21;6.90;;;6.18;;
56201;SDS011;42117;50.360;3.508;2022-07-06T06:29:47;7.82;;;7.05;;
56201;SDS011;42117;50.360;3.508;2022-07-06T06:32:13;12.80;;;5.78;;
56201;SDS011;42117;50.360;3.508;2022-07-06T06:34:39;8.85;;;6.57;;
56201;SDS011;42117;50.360;3.508;2022-07-06T06:37:05;7.82;;;5.95;;
56201;SDS011;42117;50.360;3.508;2022-07-06T06:39:32;14.38;;;7.25;;
56201;SDS011;42117;50.360;3.508;2022-07-06T06:41:58;8.43;;;6.50;;
56201;SDS011;42117;50.360;3.508;2022-07-06T06:44:24;7.18;;;6.55;;
56201;SDS011;42117;50.360;3.508;2022-07-06T06:46:50;6.60;;;6.10;;
56201;SDS011;42117;50.360;3.508;2022-07-06T06:49:19;8.07;;;7.45;;
56201;SDS011;42117;50.360;3.508;2022-07-06T06:51:45;9.88;;;5.80;;
56201;SDS011;42117;50.360;3.508;2022-07-06T06:54:11;6.10;;;5.50;;
56201;SDS011;42117;50.360;3.508;2022-07-06T06:56:37;5.80;;;5.22;;
56201;SDS011;42117;50.360;3.508;2022-07-06T06:59:03;9.38;;;5.75;;
56201;SDS011;42117;50.360;3.508;2022-07-06T07:01:29;6.38;;;5.78;;
56201;SDS011;42117;50.360;3.508;2022-07-06T07:03:55;6.35;;;5.80;;
56201;SDS011;42117;50.360;3.508;2022-07-06T07:06:21;6.07;;;5.53;;
56201;SDS011;42117;50.360;3.508;2022-07-06T07:08:47;7.75;;;5.60;;
56201;SDS011;42117;50.360;3.508;2022-07-06T07:11:13;5.90;;;5.43;;
56201;SDS011;42117;50.360;3.508;2022-07-06T07:13:39;6.65;;;6.00;;
56201;SDS011;42117;50.360;3.508;2022-07-06T07:16:05;6.13;;;5.72;;
56201;SDS011;42117;50.360;3.508;2022-07-06T07:18:32;10.43;;;6.20;;
56201;SDS011;42117;50.360;3.508;2022-07-06T07:20:58;8.18;;;5.82;;
56201;SDS011;42117;50.360;3.508;2022-07-06T07:23:24;9.63;;;5.65;;
56201;SDS011;42117;50.360;3.508;2022-07-06T07:25:50;11.90;;;5.88;;
56201;SDS011;42117;50.360;3.508;2022-07-06T07:28:16;7.15;;;6.40;;
56201;SDS011;42117;50.360;3.508;2022-07-06T07:30:42;15.85;;;6.20;;
56201;SDS011;42117;50.360;3.508;2022-07-06T07:33:08;8.50;;;6.57;;
56201;SDS011;42117;50.360;3.508;2022-07-06T07:35:34;6.63;;;6.22;;
56201;SDS011;42117;50.360;3.508;2022-07-06T07:38:00;11.38;;;6.00;;
56201;SDS011;42117;50.360;3.508;2022-07-06T07:40:26;10.18;;;5.60;;
56201;SDS011;42117;50.360;3.508;2022-07-06T07:42:52;7.25;;;6.55;;
56201;SDS011;42117;50.360;3.508;2022-07-06T07:45:18;7.03;;;5.75;;
56201;SDS011;42117;50.360;3.508;2022-07-06T07:47:44;7.43;;;6.30;;
56201;SDS011;42117;50.360;3.508;2022-07-06T07:50:10;6.72;;;5.85;;
56201;SDS011;42117;50.360;3.508;2022-07-06T07:52:37;11.32;;;5.82;;
56201;SDS011;42117;50.360;3.508;2022-07-06T07:55:03;5.43;;;5.15;;
56201;SDS011;42117;50.360;3.508;2022-07-06T07:57:29;6.53;;;5.80;;
56201;SDS011;42117;50.360;3.508;2022-07-06T07:59:55;9.60;;;5.80;;
56201;SDS011;42117;50.360;3.508;2022-07-06T08:02:21;6.78;;;6.10;;
56201;SDS011;42117;50.360;3.508;2022-07-06T08:04:47;6.57;;;5.97;;
56201;SDS011;42117;50.360;3.508;2022-07-06T08:07:13;14.77;;;6.47;;
56201;SDS011;42117;50.360;3.508;2022-07-06T08:09:39;6.10;;;5.65;;
56201;SDS011;42117;50.360;3.508;2022-07-06T08:12:05;6.60;;;5.88;;
56201;SDS011;42117;50.360;3.508;2022-07-06T08:14:31;7.82;;;5.55;;
56201;SDS011;42117;50.360;3.508;2022-07-06T08:16:58;5.53;;;5.22;;
56201;SDS011;42117;50.360;3.508;2022-07-06T08:19:23;6.85;;;6.35;;
56201;SDS011;42117;50.360;3.508;2022-07-06T08:21:49;8.13;;;6.13;;
56201;SDS011;42117;50.360;3.508;2022-07-06T08:24:15;6.40;;;5.82;;
56201;SDS011;42117;50.360;3.508;2022-07-06T08:26:41;6.50;;;5.82;;
56201;SDS011;42117;50.360;3.508;2022-07-06T08:29:07;5.53;;;5.20;;
56201;SDS011;42117;50.360;3.508;2022-07-06T08:31:33;6.07;;;5.55;;
56201;SDS011;42117;50.360;3.508;2022-07-06T08:34:00;6.50;;;4.90;;
56201;SDS011;42117;50.360;3.508;2022-07-06T08:36:26;11.27;;;5.82;;
56201;SDS011;42117;50.360;3.508;2022-07-06T08:38:52;5.78;;;5.10;;
56201;SDS011;42117;50.360;3.508;2022-07-06T08:41:20;7.68;;;5.78;;
56201;SDS011;42117;50.360;3.508;2022-07-06T08:43:47;5.97;;;5.47;;
56201;SDS011;42117;50.360;3.508;2022-07-06T08:46:13;5.72;;;5.40;;
56201;SDS011;42117;50.360;3.508;2022-07-06T08:48:40;7.95;;;5.30;;
56201;SDS011;42117;50.360;3.508;2022-07-06T08:51:06;6.22;;;5.80;;
56201;SDS011;42117;50.360;3.508;2022-07-06T08:53:32;6.90;;;5.35;;
56201;SDS011;42117;50.360;3.508;2022-07-06T08:55:59;5.40;;;4.90;;
56201;SDS011;42117;50.360;3.508;2022-07-06T08:58:25;8.00;;;6.15;;
56201;SDS011;42117;50.360;3.508;2022-07-06T09:00:55;6.05;;;5.55;;
56201;SDS011;42117;50.360;3.508;2022-07-06T09:03:22;5.70;;;5.38;;
56201;SDS011;42117;50.360;3.508;2022-07-06T09:05:48;14.52;;;6.30;;
56201;SDS011;42117;50.360;3.508;2022-07-06T09:08:16;7.38;;;5.75;;
56201;SDS011;42117;50.360;3.508;2022-07-06T09:10:43;5.65;;;5.28;;
56201;SDS011;42117;50.360;3.508;2022-07-06T09:13:09;9.73;;;5.47;;
56201;SDS011;42117;50.360;3.508;2022-07-06T09:15:36;7.13;;;5.07;;
56201;SDS011;42117;50.360;3.508;2022-07-06T09:18:05;8.48;;;5.80;;
56201;SDS011;42117;50.360;3.508;2022-07-06T09:20:32;6.72;;;5.65;;
56201;SDS011;42117;50.360;3.508;2022-07-06T09:22:59;15.10;;;5.65;;
56201;SDS011;42117;50.360;3.508;2022-07-06T09:25:25;6.45;;;5.45;;
56201;SDS011;42117;50.360;3.508;2022-07-06T09:27:52;11.77;;;6.38;;
56201;SDS011;42117;50.360;3.508;2022-07-06T09:30:21;10.98;;;5.82;;
56201;SDS011;42117;50.360;3.508;2022-07-06T09:32:51;6.45;;;5.85;;
56201;SDS011;42117;50.360;3.508;2022-07-06T09:37:47;10.88;;;5.97;;
56201;SDS011;42117;50.360;3.508;2022-07-06T09:40:16;17.13;;;5.90;;
56201;SDS011;42117;50.360;3.508;2022-07-06T09:42:43;7.32;;;4.90;;
56201;SDS011;42117;50.360;3.508;2022-07-06T09:45:09;8.27;;;5.03;;
56201;SDS011;42117;50.360;3.508;2022-07-06T09:47:35;8.60;;;4.75;;
56201;SDS011;42117;50.360;3.508;2022-07-06T09:50:04;56.97;;;7.22;;
56201;SDS011;42117;50.360;3.508;2022-07-06T09:52:33;6.28;;;5.10;;
56201;SDS011;42117;50.360;3.508;2022-07-06T09:54:59;6.03;;;5.38;;
56201;SDS011;42117;50.360;3.508;2022-07-06T10:13:58;5.68;;;5.25;;
56201;SDS011;42117;50.360;3.508;2022-07-06T10:16:27;5.63;;;5.32;;
56201;SDS011;42117;50.360;3.508;2022-07-06T10:18:53;9.82;;;5.38;;
56201;SDS011;42117;50.360;3.508;2022-07-06T10:21:23;5.00;;;4.70;;
56201;SDS011;42117;50.360;3.508;2022-07-06T10:23:49;6.10;;;4.70;;
56201;SDS011;42117;50.360;3.508;2022-07-06T10:26:16;29.85;;;6.60;;
56201;SDS011;42117;50.360;3.508;2022-07-06T10:28:43;33.72;;;7.95;;
56201;SDS011;42117;50.360;3.508;2022-07-06T10:31:10;6.47;;;4.32;;
56201;SDS011;42117;50.360;3.508;2022-07-06T10:33:36;7.30;;;4.93;;
56201;SDS011;42117;50.360;3.508;2022-07-06T10:36:03;6.95;;;4.70;;
56201;SDS011;42117;50.360;3.508;2022-07-06T10:38:32;42.33;;;7.25;;
56201;SDS011;42117;50.360;3.508;2022-07-06T10:41:05;8.48;;;4.60;;
56201;SDS011;42117;50.360;3.508;2022-07-06T10:48:33;5.28;;;4.65;;
56201;SDS011;42117;50.360;3.508;2022-07-06T10:50:59;10.02;;;3.70;;
56201;SDS011;42117;50.360;3.508;2022-07-06T10:53:29;35.78;;;5.30;;
56201;SDS011;42117;50.360;3.508;2022-07-06T10:55:58;6.32;;;3.45;;
56201;SDS011;42117;50.360;3.508;2022-07-06T11:01:09;4.10;;;3.53;;
56201;SDS011;42117;50.360;3.508;2022-07-06T11:06:04;19.70;;;4.68;;
56201;SDS011;42117;50.360;3.508;2022-07-06T11:08:41;5.85;;;3.65;;
56201;SDS011;42117;50.360;3.508;2022-07-06T11:11:41;5.40;;;3.55;;
56201;SDS011;42117;50.360;3.508;2022-07-06T11:16:32;9.45;;;3.75;;
56201;SDS011;42117;50.360;3.508;2022-07-06T11:19:18;4.07;;;3.70;;
56201;SDS011;42117;50.360;3.508;2022-07-06T11:24:17;3.35;;;3.05;;
56201;SDS011;42117;50.360;3.508;2022-07-06T11:26:44;3.25;;;2.72;;
56201;SDS011;42117;50.360;3.508;2022-07-06T11:29:11;4.72;;;3.05;;
56201;SDS011;42117;50.360;3.508;2022-07-06T11:31:38;3.38;;;3.08;;
56201;SDS011;42117;50.360;3.508;2022-07-06T11:34:05;3.05;;;2.85;;
56201;SDS011;42117;50.360;3.508;2022-07-06T11:36:31;2.70;;;2.50;;
56201;SDS011;42117;50.360;3.508;2022-07-06T11:38:58;5.03;;;3.00;;
56201;SDS011;42117;50.360;3.508;2022-07-06T11:41:24;2.85;;;2.65;;
56201;SDS011;42117;50.360;3.508;2022-07-06T11:43:50;6.45;;;3.00;;
56201;SDS011;42117;50.360;3.508;2022-07-06T11:46:20;3.30;;;3.05;;
56201;SDS011;42117;50.360;3.508;2022-07-06T11:48:47;17.10;;;3.50;;
56201;SDS011;42117;50.360;3.508;2022-07-06T11:51:13;4.07;;;2.83;;
56201;SDS011;42117;50.360;3.508;2022-07-06T11:53:46;3.17;;;3.00;;
56201;SDS011;42117;50.360;3.508;2022-07-06T11:56:16;3.33;;;3.15;;
56201;SDS011;42117;50.360;3.508;2022-07-06T11:58:50;2.97;;;2.72;;
56201;SDS011;42117;50.360;3.508;2022-07-06T12:01:16;5.68;;;2.80;;
56201;SDS011;42117;50.360;3.508;2022-07-06T12:03:43;7.80;;;3.03;;
56201;SDS011;42117;50.360;3.508;2022-07-06T12:06:17;9.93;;;3.30;;
56201;SDS011;42117;50.360;3.508;2022-07-06T12:08:48;2.38;;;2.28;;
56201;SDS011;42117;50.360;3.508;2022-07-06T12:13:50;2.92;;;2.42;;
56201;SDS011;42117;50.360;3.508;2022-07-06T12:18:43;3.50;;;3.40;;
56201;SDS011;42117;50.360;3.508;2022-07-06T12:21:13;7.45;;;3.88;;
56201;SDS011;42117;50.360;3.508;2022-07-06T12:23:45;5.57;;;3.78;;
56201;SDS011;42117;50.360;3.508;2022-07-06T12:26:12;31.88;;;6.68;;
56201;SDS011;42117;50.360;3.508;2022-07-06T12:31:04;9.13;;;3.85;;
56201;SDS011;42117;50.360;3.508;2022-07-06T12:33:31;3.70;;;3.53;;
56201;SDS011;42117;50.360;3.508;2022-07-06T12:36:07;4.60;;;3.73;;
56201;SDS011;42117;50.360;3.508;2022-07-06T12:38:34;3.55;;;3.30;;
56201;SDS011;42117;50.360;3.508;2022-07-06T12:41:00;3.80;;;3.60;;
56201;SDS011;42117;50.360;3.508;2022-07-06T12:43:40;3.95;;;3.20;;
56201;SDS011;42117;50.360;3.508;2022-07-06T12:48:51;5.78;;;3.80;;
56201;SDS011;42117;50.360;3.508;2022-07-06T12:51:17;8.98;;;4.38;;
56201;SDS011;42117;50.360;3.508;2022-07-06T12:53:43;4.07;;;3.88;;
56201;SDS011;42117;50.360;3.508;2022-07-06T12:56:10;4.03;;;3.80;;
56201;SDS011;42117;50.360;3.508;2022-07-06T12:58:36;4.30;;;3.92;;
56201;SDS011;42117;50.360;3.508;2022-07-06T13:01:02;14.60;;;3.95;;
56201;SDS011;42117;50.360;3.508;2022-07-06T13:03:35;4.93;;;4.40;;
56201;SDS011;42117;50.360;3.508;2022-07-06T13:06:03;4.15;;;3.85;;
56201;SDS011;42117;50.360;3.508;2022-07-06T13:08:30;137.88;;;15.15;;
56201;SDS011;42117;50.360;3.508;2022-07-06T13:10:56;29.65;;;4.63;;
56201;SDS011;42117;50.360;3.508;2022-07-06T13:13:22;4.38;;;4.10;;
56201;SDS011;42117;50.360;3.508;2022-07-06T13:15:48;5.00;;;4.43;;
56201;SDS011;42117;50.360;3.508;2022-07-06T13:18:15;3.50;;;3.40;;
56201;SDS011;42117;50.360;3.508;2022-07-06T13:20:43;48.65;;;5.32;;
56201;SDS011;42117;50.360;3.508;2022-07-06T13:23:10;3.60;;;3.50;;
56201;SDS011;42117;50.360;3.508;2022-07-06T13:25:36;42.55;;;5.47;;
56201;SDS011;42117;50.360;3.508;2022-07-06T13:28:02;6.18;;;3.90;;
56201;SDS011;42117;50.360;3.508;2022-07-06T13:30:28;5.93;;;3.93;;
56201;SDS011;42117;50.360;3.508;2022-07-06T13:32:54;4.50;;;4.10;;
56201;SDS011;42117;50.360;3.508;2022-07-06T13:35:21;3.78;;;3.47;;
56201;SDS011;42117;50.360;3.508;2022-07-06T13:37:47;5.35;;;3.60;;
56201;SDS011;42117;50.360;3.508;2022-07-06T13:40:15;3.45;;;3.25;;
56201;SDS011;42117;50.360;3.508;2022-07-06T13:42:41;3.30;;;3.20;;
56201;SDS011;42117;50.360;3.508;2022-07-06T13:45:07;14.75;;;4.40;;
56201;SDS011;42117;50.360;3.508;2022-07-06T13:47:33;4.10;;;3.40;;
56201;SDS011;42117;50.360;3.508;2022-07-06T13:49:59;26.85;;;5.35;;
56201;SDS011;42117;50.360;3.508;2022-07-06T13:52:25;46.72;;;6.47;;
56201;SDS011;42117;50.360;3.508;2022-07-06T13:54:51;4.13;;;3.90;;
56201;SDS011;42117;50.360;3.508;2022-07-06T13:57:17;18.85;;;5.13;;
56201;SDS011;42117;50.360;3.508;2022-07-06T13:59:43;17.65;;;5.43;;
56201;SDS011;42117;50.360;3.508;2022-07-06T14:02:11;4.40;;;4.20;;
56201;SDS011;42117;50.360;3.508;2022-07-06T14:04:37;12.25;;;4.40;;
56201;SDS011;42117;50.360;3.508;2022-07-06T14:07:03;4.07;;;3.87;;
56201;SDS011;42117;50.360;3.508;2022-07-06T14:09:29;4.40;;;4.00;;
56201;SDS011;42117;50.360;3.508;2022-07-06T14:11:55;29.63;;;4.85;;
56201;SDS011;42117;50.360;3.508;2022-07-06T14:14:21;27.15;;;6.18;;
56201;SDS011;42117;50.360;3.508;2022-07-06T14:16:47;5.32;;;4.82;;
56201;SDS011;42117;50.360;3.508;2022-07-06T14:19:13;16.98;;;5.18;;
56201;SDS011;42117;50.360;3.508;2022-07-06T14:21:40;4.80;;;4.50;;
56201;SDS011;42117;50.360;3.508;2022-07-06T14:24:06;5.00;;;4.55;;
56201;SDS011;42117;50.360;3.508;2022-07-06T14:26:32;5.65;;;5.13;;
56201;SDS011;42117;50.360;3.508;2022-07-06T14:28:58;5.05;;;4.72;;
56201;SDS011;42117;50.360;3.508;2022-07-06T14:31:24;9.85;;;5.78;;
56201;SDS011;42117;50.360;3.508;2022-07-06T14:33:50;5.80;;;5.07;;
56201;SDS011;42117;50.360;3.508;2022-07-06T14:36:16;8.43;;;5.10;;
56201;SDS011;42117;50.360;3.508;2022-07-06T14:38:42;18.83;;;5.65;;
56201;SDS011;42117;50.360;3.508;2022-07-06T14:41:08;13.57;;;5.47;;
56201;SDS011;42117;50.360;3.508;2022-07-06T14:43:34;5.68;;;4.97;;
56201;SDS011;42117;50.360;3.508;2022-07-06T14:46:01;30.23;;;6.90;;
56201;SDS011;42117;50.360;3.508;2022-07-06T14:48:27;40.08;;;7.00;;
56201;SDS011;42117;50.360;3.508;2022-07-06T14:50:53;5.60;;;5.15;;
56201;SDS011;42117;50.360;3.508;2022-07-06T14:53:19;12.75;;;6.32;;
56201;SDS011;42117;50.360;3.508;2022-07-06T14:55:45;5.22;;;4.85;;
56201;SDS011;42117;50.360;3.508;2022-07-06T14:58:12;8.60;;;6.15;;
56201;SDS011;42117;50.360;3.508;2022-07-06T15:00:38;13.55;;;5.85;;
56201;SDS011;42117;50.360;3.508;2022-07-06T15:03:04;6.75;;;5.18;;
56201;SDS011;42117;50.360;3.508;2022-07-06T15:05:30;10.27;;;5.60;;
56201;SDS011;42117;50.360;3.508;2022-07-06T15:07:56;15.43;;;6.20;;
56201;SDS011;42117;50.360;3.508;2022-07-06T15:10:22;8.57;;;5.40;;
56201;SDS011;42117;50.360;3.508;2022-07-06T15:12:48;8.25;;;5.95;;
56201;SDS011;42117;50.360;3.508;2022-07-06T15:15:14;5.03;;;4.60;;
56201;SDS011;42117;50.360;3.508;2022-07-06T15:17:40;6.95;;;5.80;;
56201;SDS011;42117;50.360;3.508;2022-07-06T15:20:06;7.95;;;5.00;;
56201;SDS011;42117;50.360;3.508;2022-07-06T15:22:32;6.60;;;5.38;;
56201;SDS011;42117;50.360;3.508;2022-07-06T15:24:58;28.52;;;6.63;;